createdAt,value
2022-11-23T00:01:27.535Z,40.78
2022-11-23T00:03:57.334Z,40.08
2022-11-23T00:06:26.186Z,41.22
2022-11-23T00:08:54.347Z,41.28
2022-11-23T00:11:23.276Z,40.38
2022-11-23T00:13:51.521Z,41.05
2022-11-23T00:16:23.928Z,41.53
2022-11-23T00:18:58.839Z,40.78
2022-11-23T00:21:28.603Z,41.58
2022-11-23T00:23:55.962Z,43.03
2022-11-23T00:26:23.291Z,40.30
2022-11-23T00:28:50.844Z,40.53
2022-11-23T00:31:20.494Z,41.95
2022-11-23T00:33:53.119Z,42.42
2022-11-23T00:36:21.480Z,37.85
2022-11-23T00:38:49.724Z,39.85
2022-11-23T00:41:19.729Z,41.53
2022-11-23T00:43:47.365Z,40.38
2022-11-23T00:46:21.664Z,41.65
2022-11-23T00:48:50.857Z,40.33
2022-11-23T00:51:29.299Z,39.40
2022-11-23T00:53:57.363Z,41.53
2022-11-23T00:56:26.280Z,39.40
2022-11-23T00:58:55.449Z,41.97
2022-11-23T01:01:25.156Z,39.78
2022-11-23T01:03:58.661Z,41.55
2022-11-23T01:06:38.241Z,39.58
2022-11-23T01:09:14.736Z,40.45
2022-11-23T01:11:42.110Z,40.90
2022-11-23T01:14:09.386Z,40.28
2022-11-23T01:16:40.897Z,41.53
2022-11-23T01:19:15.690Z,40.65
2022-11-23T01:21:43.368Z,42.40
2022-11-23T01:24:21.961Z,43.53
2022-11-23T01:26:53.678Z,42.42
2022-11-23T01:29:21.399Z,43.75
2022-11-23T01:31:48.939Z,43.97
2022-11-23T01:34:17.330Z,40.65
2022-11-23T01:36:45.620Z,39.38
2022-11-23T01:39:13.240Z,41.92
2022-11-23T01:41:42.568Z,40.75
2022-11-23T01:44:30.863Z,41.57
2022-11-23T01:47:03.809Z,41.95
2022-11-23T01:49:41.341Z,39.83
2022-11-23T01:52:15.531Z,39.45
2022-11-23T01:54:50.551Z,41.45
2022-11-23T01:57:34.719Z,41.00
2022-11-23T02:00:02.174Z,36.95
2022-11-23T02:02:45.992Z,38.42
2022-11-23T02:05:15.161Z,37.58
2022-11-23T02:07:47.181Z,38.20
2022-11-23T02:10:16.032Z,37.72
2022-11-23T02:12:43.210Z,37.45
2022-11-23T02:15:12.685Z,37.80
2022-11-23T02:17:43.339Z,35.63
2022-11-23T02:20:18.044Z,36.42
2022-11-23T02:22:57.585Z,37.58
2022-11-23T02:25:46.049Z,36.33
2022-11-23T02:28:20.049Z,39.22
2022-11-23T02:30:50.642Z,36.33
2022-11-23T02:33:17.874Z,38.20
2022-11-23T02:36:00.124Z,37.45
2022-11-23T02:38:33.563Z,36.15
2022-11-23T02:41:01.420Z,36.33
2022-11-23T02:43:28.663Z,37.63
2022-11-23T02:46:03.348Z,36.83
2022-11-23T02:48:30.710Z,35.65
2022-11-23T02:50:57.825Z,38.60
2022-11-23T02:53:25.006Z,36.33
2022-11-23T02:55:54.242Z,35.30
2022-11-23T02:58:21.562Z,34.60
2022-11-23T03:00:48.804Z,38.67
2022-11-23T03:03:19.440Z,35.65
2022-11-23T03:05:46.593Z,35.67
2022-11-23T03:08:13.934Z,36.20
2022-11-23T03:10:41.122Z,35.53
2022-11-23T03:13:08.932Z,36.00
2022-11-23T03:15:38.352Z,38.00
2022-11-23T03:18:06.319Z,38.90
2022-11-23T03:20:33.912Z,36.70
2022-11-23T03:23:01.006Z,36.78
2022-11-23T03:25:28.239Z,36.30
2022-11-23T03:27:56.850Z,36.35
2022-11-23T03:30:24.000Z,35.20
2022-11-23T03:32:51.599Z,36.90
2022-11-23T03:35:19.882Z,37.03
2022-11-23T03:38:22.760Z,36.13
2022-11-23T03:40:51.403Z,36.88
2022-11-23T03:43:27.244Z,37.50
2022-11-23T03:45:54.452Z,34.55
2022-11-23T03:48:22.930Z,37.55
2022-11-23T03:50:50.124Z,38.55
2022-11-23T03:53:17.292Z,35.42
2022-11-23T03:55:48.730Z,36.22
2022-11-23T04:00:43.207Z,36.72
2022-11-23T04:03:12.601Z,35.58
2022-11-23T04:06:02.763Z,34.58
2022-11-23T04:08:48.613Z,37.95
2022-11-23T04:11:23.599Z,38.17
2022-11-23T04:13:51.081Z,36.35
2022-11-23T04:16:19.808Z,37.63
2022-11-23T04:18:47.040Z,35.55
2022-11-23T04:21:14.294Z,39.13
2022-11-23T04:23:41.448Z,38.85
2022-11-23T04:26:11.089Z,37.72
2022-11-23T04:28:41.801Z,40.08
2022-11-23T04:31:09.033Z,38.92
2022-11-23T04:33:47.996Z,39.38
2022-11-23T04:36:17.529Z,41.13
2022-11-23T04:38:44.995Z,39.58
2022-11-23T04:41:15.525Z,37.78
2022-11-23T04:43:42.610Z,38.95
2022-11-23T04:46:11.914Z,38.47
2022-11-23T04:48:39.159Z,38.33
2022-11-23T04:51:06.651Z,37.72
2022-11-23T04:53:37.873Z,38.97
2022-11-23T04:56:05.600Z,35.90
2022-11-23T04:58:36.976Z,37.13
2022-11-23T05:01:05.309Z,36.45
2022-11-23T05:03:37.294Z,36.47
2022-11-23T05:06:08.038Z,37.15
2022-11-23T05:08:40.128Z,36.58
2022-11-23T05:13:59.679Z,34.50
2022-11-23T05:16:27.756Z,34.78
2022-11-23T05:18:54.962Z,35.65
2022-11-23T05:21:22.441Z,36.38
2022-11-23T05:23:50.048Z,35.60
2022-11-23T05:26:19.162Z,37.55
2022-11-23T05:28:46.539Z,35.40
2022-11-23T05:31:15.857Z,36.17
2022-11-23T05:33:46.009Z,35.75
2022-11-23T05:36:14.886Z,34.63
2022-11-23T05:38:42.759Z,35.55
2022-11-23T05:41:19.122Z,34.38
2022-11-23T05:43:47.319Z,32.70
2022-11-23T05:46:19.729Z,33.70
2022-11-23T05:48:47.168Z,33.03
2022-11-23T05:51:14.321Z,32.80
2022-11-23T05:53:45.768Z,33.67
2022-11-23T05:56:37.288Z,32.85
2022-11-23T05:59:19.731Z,32.00
2022-11-23T06:01:52.419Z,33.13
2022-11-23T06:04:30.406Z,32.53
2022-11-23T06:07:01.338Z,32.40
2022-11-23T06:09:39.969Z,32.05
2022-11-23T06:14:37.400Z,28.60
2022-11-23T06:17:04.812Z,31.23
2022-11-23T06:19:39.320Z,33.08
2022-11-23T06:22:06.479Z,32.80
2022-11-23T06:24:39.602Z,32.80
2022-11-23T06:27:32.920Z,34.92
2022-11-23T06:32:32.219Z,32.15
2022-11-23T06:35:01.114Z,30.95
2022-11-23T06:37:32.315Z,30.88
2022-11-23T06:39:59.476Z,31.52
2022-11-23T06:42:42.047Z,29.98
2022-11-23T06:45:17.352Z,29.67
2022-11-23T06:47:45.489Z,31.60
2022-11-23T06:50:14.654Z,32.95
2022-11-23T06:52:43.488Z,31.80
2022-11-23T06:55:10.634Z,33.42
2022-11-23T06:57:37.730Z,31.17
2022-11-23T07:00:05.599Z,31.60
2022-11-23T07:02:37.003Z,30.33
2022-11-23T07:05:04.250Z,32.47
2022-11-23T07:07:33.232Z,31.85
2022-11-23T07:10:08.499Z,31.67
2022-11-23T07:12:44.192Z,33.70
2022-11-23T07:15:12.173Z,32.33
2022-11-23T07:17:41.701Z,31.90
2022-11-23T07:20:11.962Z,31.02
2022-11-23T07:22:40.361Z,30.83
2022-11-23T07:25:08.432Z,33.15
2022-11-23T07:27:35.704Z,34.85
2022-11-23T07:30:03.844Z,34.70
2022-11-23T07:32:31.039Z,33.70
2022-11-23T07:34:58.192Z,31.02
2022-11-23T07:37:26.850Z,34.75
2022-11-23T07:39:57.695Z,33.42
2022-11-23T07:42:34.462Z,33.85
2022-11-23T07:45:02.159Z,33.28
2022-11-23T07:47:29.599Z,34.95
2022-11-23T07:49:56.684Z,33.67
2022-11-23T07:52:24.121Z,33.97
2022-11-23T07:54:51.414Z,33.58
2022-11-23T07:57:18.528Z,36.28
2022-11-23T07:59:45.808Z,34.88
2022-11-23T08:02:16.278Z,34.72
2022-11-23T08:04:43.494Z,34.10
2022-11-23T08:07:10.716Z,36.30
2022-11-23T08:09:37.891Z,34.88
2022-11-23T08:12:05.564Z,33.05
2022-11-23T08:14:32.891Z,35.78
2022-11-23T08:17:00.246Z,35.08
2022-11-23T08:19:27.335Z,33.50
2022-11-23T08:21:54.447Z,36.85
2022-11-23T08:24:21.522Z,34.25
2022-11-23T08:26:49.244Z,37.13
2022-11-23T08:29:16.483Z,34.10
2022-11-23T08:31:44.044Z,35.53
2022-11-23T08:34:11.438Z,34.72
2022-11-23T08:36:38.764Z,36.92
2022-11-23T08:39:06.006Z,35.72
2022-11-23T08:41:33.964Z,33.60
2022-11-23T08:44:01.161Z,34.58
2022-11-23T08:46:28.260Z,35.78
2022-11-23T08:48:55.321Z,36.08
2022-11-23T08:51:25.206Z,37.55
2022-11-23T08:53:53.561Z,35.97
2022-11-23T08:56:20.718Z,34.13
2022-11-23T08:58:47.853Z,37.88
2022-11-23T09:01:16.991Z,37.33
2022-11-23T09:03:45.129Z,35.45
2022-11-23T09:06:12.838Z,34.85
2022-11-23T09:08:39.958Z,34.15
2022-11-23T09:11:10.366Z,35.00
2022-11-23T09:13:38.123Z,36.33
2022-11-23T09:16:06.841Z,34.72
2022-11-23T09:18:35.630Z,35.67
2022-11-23T09:21:04.949Z,31.17
2022-11-23T09:23:32.290Z,35.17
2022-11-23T09:26:00.551Z,37.15
2022-11-23T09:28:28.760Z,32.33
2022-11-23T09:30:57.441Z,35.67
2022-11-23T09:33:25.667Z,34.13
2022-11-23T09:36:00.809Z,37.17
2022-11-23T09:38:51.552Z,33.90
2022-11-23T09:41:49.780Z,32.92
2022-11-23T09:44:35.552Z,33.58
2022-11-23T09:47:02.769Z,33.63
2022-11-23T09:49:40.411Z,33.72
2022-11-23T09:52:18.616Z,33.20
2022-11-23T09:54:48.618Z,33.10
2022-11-23T09:57:22.735Z,33.60
2022-11-23T10:00:06.859Z,32.08
2022-11-23T10:02:40.933Z,33.60
2022-11-23T10:05:14.802Z,34.72
2022-11-23T10:07:56.512Z,33.92
2022-11-23T10:10:44.329Z,34.25
2022-11-23T10:13:27.476Z,31.15
2022-11-23T10:16:15.271Z,32.38
2022-11-23T10:18:48.162Z,31.05
2022-11-23T10:21:30.579Z,31.20
2022-11-23T10:24:19.483Z,30.55
2022-11-23T10:26:49.943Z,30.23
2022-11-23T10:29:25.700Z,32.42
2022-11-23T10:31:57.228Z,31.77
2022-11-23T10:35:07.146Z,34.25
2022-11-23T10:37:34.793Z,30.58
2022-11-23T10:40:02.050Z,32.70
2022-11-23T10:42:42.643Z,32.63
2022-11-23T10:45:24.051Z,31.67
2022-11-23T10:47:59.882Z,29.05
2022-11-23T10:50:30.230Z,31.38
2022-11-23T10:53:01.582Z,29.45
2022-11-23T10:55:55.111Z,31.00
2022-11-23T10:58:29.840Z,31.02
2022-11-23T11:01:06.891Z,31.77
2022-11-23T11:03:35.598Z,32.63
2022-11-23T11:06:11.357Z,31.08
2022-11-23T11:08:53.969Z,30.08
2022-11-23T11:11:29.641Z,30.95
2022-11-23T11:14:15.776Z,32.45
2022-11-23T11:16:53.591Z,30.00
2022-11-23T11:19:35.566Z,32.33
2022-11-23T11:22:24.706Z,30.35
2022-11-23T11:24:52.018Z,30.50
2022-11-23T11:27:24.698Z,29.58
2022-11-23T11:29:55.808Z,30.52
2022-11-23T11:32:41.538Z,28.98
2022-11-23T11:35:26.325Z,30.67
2022-11-23T11:38:00.771Z,30.52
2022-11-23T11:40:38.041Z,30.17
2022-11-23T11:43:39.484Z,30.10
2022-11-23T11:46:31.632Z,34.13
2022-11-23T11:49:15.121Z,30.30
2022-11-23T11:51:47.718Z,28.65
2022-11-23T11:54:37.275Z,29.58
2022-11-23T11:57:15.042Z,30.08
2022-11-23T11:59:47.399Z,30.95
2022-11-23T12:02:49.325Z,30.45
2022-11-23T12:05:28.484Z,29.17
2022-11-23T12:08:14.401Z,29.80
2022-11-23T12:10:51.301Z,29.63
2022-11-23T12:13:32.422Z,30.70
2022-11-23T12:16:11.326Z,32.20
2022-11-23T12:18:51.119Z,36.17
2022-11-23T12:22:09.081Z,34.97
2022-11-23T12:25:02.512Z,33.95
2022-11-23T12:28:05.005Z,33.88
2022-11-23T12:30:50.238Z,33.78
2022-11-23T12:33:42.679Z,35.20
2022-11-23T12:36:44.009Z,34.08
2022-11-23T12:39:41.889Z,34.40
2022-11-23T12:42:38.040Z,35.03
2022-11-23T12:45:39.007Z,33.80
2022-11-23T12:48:06.516Z,32.90
2022-11-23T12:50:39.316Z,33.47
2022-11-23T12:53:21.135Z,33.15
2022-11-23T12:56:06.711Z,30.92
2022-11-23T12:58:35.079Z,32.30
2022-11-23T13:01:13.550Z,31.70
2022-11-23T13:04:10.424Z,34.53
2022-11-23T13:10:04.249Z,33.33
2022-11-23T13:12:53.040Z,38.58
2022-11-23T13:15:58.004Z,36.50
2022-11-23T13:18:37.300Z,38.75
2022-11-23T13:21:29.794Z,41.10
2022-11-23T13:23:57.240Z,39.78
2022-11-23T13:26:28.420Z,40.72
2022-11-23T13:29:01.691Z,40.65
2022-11-23T13:31:31.789Z,40.40
2022-11-23T13:36:56.548Z,38.85
2022-11-23T13:39:52.041Z,39.58
2022-11-23T13:42:20.028Z,37.53
2022-11-23T13:44:47.210Z,39.15
2022-11-23T13:47:17.259Z,39.65
2022-11-23T13:49:52.330Z,42.53
2022-11-23T13:52:22.659Z,42.13
2022-11-23T13:55:09.301Z,40.83
2022-11-23T13:57:42.672Z,38.22
2022-11-23T14:00:48.073Z,35.35
2022-11-23T14:03:43.272Z,34.50
2022-11-23T14:06:43.680Z,31.58
2022-11-23T14:09:19.881Z,32.88
2022-11-23T14:12:07.954Z,32.17
2022-11-23T14:14:44.073Z,35.83
2022-11-23T14:17:40.929Z,35.88
2022-11-23T14:20:35.329Z,34.95
2022-11-23T14:23:25.124Z,35.38
2022-11-23T14:26:16.972Z,34.30
2022-11-23T14:29:14.594Z,37.58
2022-11-23T14:32:09.754Z,38.35
2022-11-23T14:35:01.843Z,38.58
2022-11-23T14:38:03.001Z,38.80
2022-11-23T14:41:05.369Z,39.90
2022-11-23T14:43:34.814Z,38.85
2022-11-23T14:46:04.410Z,40.90
2022-11-23T14:48:35.182Z,40.45
2022-11-23T14:51:12.700Z,40.63
2022-11-23T14:53:47.004Z,37.25
2022-11-23T14:56:35.722Z,36.05
2022-11-23T14:59:25.730Z,33.97
2022-11-23T15:01:55.855Z,33.67
2022-11-23T15:04:34.305Z,33.20
2022-11-23T15:07:07.097Z,33.03
2022-11-23T15:09:46.114Z,34.65
2022-11-23T15:12:26.336Z,33.15
2022-11-23T15:17:22.963Z,33.08
2022-11-23T15:20:01.006Z,37.17
2022-11-23T15:22:29.588Z,34.80
2022-11-23T15:25:08.593Z,37.20
2022-11-23T15:27:40.330Z,36.90
2022-11-23T15:30:37.650Z,36.25
2022-11-23T15:33:11.753Z,39.33
2022-11-23T15:35:40.844Z,37.83
2022-11-23T15:38:16.640Z,38.33
2022-11-23T15:40:48.736Z,35.97
2022-11-23T15:43:20.365Z,35.55
2022-11-23T15:45:47.572Z,35.10
2022-11-23T15:48:27.644Z,35.83
2022-11-23T15:51:03.384Z,33.40
2022-11-23T15:53:30.517Z,35.13
2022-11-23T15:56:06.221Z,36.78
2022-11-23T15:58:35.477Z,37.90
2022-11-23T16:01:13.617Z,37.70
2022-11-23T16:03:42.876Z,38.28
2022-11-23T16:06:16.962Z,38.90
2022-11-23T16:08:44.204Z,38.40
2022-11-23T16:11:33.888Z,40.20
2022-11-23T16:14:19.082Z,39.40
2022-11-23T16:16:48.729Z,36.70
2022-11-23T16:19:29.702Z,38.13
2022-11-23T16:22:02.789Z,39.95
2022-11-23T16:24:32.916Z,39.95
2022-11-23T16:27:01.523Z,38.72
2022-11-23T16:29:36.880Z,40.15
2022-11-23T16:32:07.376Z,41.05
2022-11-23T16:34:35.175Z,44.63
2022-11-23T16:37:04.192Z,41.20
2022-11-23T16:39:31.412Z,39.35
2022-11-23T16:41:58.509Z,39.03
2022-11-23T16:44:25.739Z,39.50
2022-11-23T16:46:53.017Z,38.17
2022-11-23T16:49:23.640Z,38.45
2022-11-23T16:51:56.993Z,38.08
2022-11-23T16:54:25.556Z,37.75
2022-11-23T16:56:53.469Z,36.88
2022-11-23T16:59:20.940Z,36.60
2022-11-23T17:01:53.999Z,35.65
2022-11-23T17:04:24.736Z,34.50
2022-11-23T17:06:51.965Z,35.78
2022-11-23T17:09:19.064Z,35.50
2022-11-23T17:11:50.661Z,35.20
2022-11-23T17:14:19.676Z,34.03
2022-11-23T17:16:47.995Z,35.10
2022-11-23T17:19:20.283Z,36.22
2022-11-23T17:21:47.567Z,36.42
2022-11-23T17:24:14.722Z,35.53
2022-11-23T17:26:46.718Z,35.80
2022-11-23T17:29:19.234Z,35.25
2022-11-23T17:31:47.762Z,36.05
2022-11-23T17:34:15.848Z,34.97
2022-11-23T17:36:45.642Z,37.97
2022-11-23T17:39:20.289Z,36.13
2022-11-23T17:41:48.362Z,37.35
2022-11-23T17:44:16.662Z,37.47
2022-11-23T17:46:45.074Z,38.28
2022-11-23T17:49:14.372Z,39.28
2022-11-23T17:51:41.564Z,39.00
2022-11-23T17:54:08.943Z,37.33
2022-11-23T17:56:36.461Z,36.83
2022-11-23T17:59:04.369Z,37.35
2022-11-23T18:01:31.678Z,38.75
2022-11-23T18:04:01.264Z,36.40
2022-11-23T18:06:29.684Z,38.35
2022-11-23T18:08:57.321Z,38.22
2022-11-23T18:11:25.012Z,34.75
2022-11-23T18:13:52.538Z,32.88
2022-11-23T18:16:21.375Z,31.45
2022-11-23T18:18:49.768Z,31.17
2022-11-23T18:21:17.612Z,32.67
2022-11-23T18:23:45.221Z,32.45
2022-11-23T18:26:21.249Z,33.78
2022-11-23T18:28:50.054Z,35.92
2022-11-23T18:31:18.349Z,35.80
2022-11-23T18:33:46.803Z,33.55
2022-11-23T18:36:14.405Z,34.25
2022-11-23T18:38:45.124Z,37.22
2022-11-23T18:41:14.680Z,37.60
2022-11-23T18:43:42.622Z,38.08
2022-11-23T18:46:11.712Z,37.47
2022-11-23T18:48:39.170Z,37.28
2022-11-23T18:51:06.589Z,38.42
2022-11-23T18:53:33.928Z,38.60
2022-11-23T18:56:05.323Z,36.25
2022-11-23T18:58:34.122Z,39.63
2022-11-23T19:01:13.215Z,37.10
2022-11-23T19:03:44.801Z,37.83
2022-11-23T19:06:13.923Z,39.28
2022-11-23T19:08:43.205Z,42.85
2022-11-23T19:11:17.841Z,44.30
2022-11-23T19:13:47.457Z,43.95
2022-11-23T19:16:23.118Z,41.17
2022-11-23T19:18:55.108Z,41.03
2022-11-23T19:21:24.863Z,38.65
2022-11-23T19:23:53.300Z,36.72
2022-11-23T19:26:23.727Z,37.40
2022-11-23T19:28:52.412Z,36.25
2022-11-23T19:31:24.844Z,40.28
2022-11-23T19:33:54.316Z,38.05
2022-11-23T19:36:24.362Z,34.80
2022-11-23T19:38:52.374Z,35.38
2022-11-23T19:41:23.030Z,43.22
2022-11-23T19:43:55.710Z,37.45
2022-11-23T19:46:23.982Z,44.20
2022-11-23T19:48:51.321Z,48.17
2022-11-23T19:51:20.459Z,48.00
2022-11-23T19:53:49.456Z,51.45
2022-11-23T19:56:19.733Z,51.28
2022-11-23T19:58:50.572Z,48.45
2022-11-23T20:01:19.577Z,48.20
2022-11-23T20:03:48.958Z,45.72
2022-11-23T20:06:28.392Z,43.70
2022-11-23T20:09:00.846Z,44.23
2022-11-23T20:11:31.720Z,45.88
2022-11-23T20:13:59.203Z,40.08
2022-11-23T20:16:28.980Z,40.55
2022-11-23T20:18:59.292Z,43.97
2022-11-23T20:21:28.111Z,41.67
2022-11-23T20:24:01.464Z,42.50
2022-11-23T20:26:32.790Z,41.95
2022-11-23T20:28:59.963Z,46.83
2022-11-23T20:31:29.602Z,47.10
2022-11-23T20:33:57.474Z,48.60
2022-11-23T20:36:30.142Z,50.28
2022-11-23T20:38:58.080Z,55.60
2022-11-23T20:41:30.411Z,57.67
2022-11-23T20:44:00.376Z,51.95
2022-11-23T20:46:59.883Z,51.85
2022-11-23T20:49:17.602Z,53.85
2022-11-23T20:51:44.712Z,56.42
2022-11-23T20:54:12.431Z,53.22
2022-11-23T20:56:39.648Z,51.08
2022-11-23T20:59:07.045Z,49.50
2022-11-23T21:01:34.808Z,42.35
2022-11-23T21:04:02.276Z,40.33
2022-11-23T21:06:30.117Z,41.70
2022-11-23T21:08:59.782Z,38.75
2022-11-23T21:11:47.439Z,37.25
2022-11-23T21:14:24.711Z,39.63
2022-11-23T21:16:55.364Z,37.30
2022-11-23T21:19:30.696Z,39.25
2022-11-23T21:21:59.299Z,36.35
2022-11-23T21:24:26.808Z,36.50
2022-11-23T21:26:54.038Z,36.15
2022-11-23T21:29:21.373Z,38.67
2022-11-23T21:31:49.462Z,37.53
2022-11-23T21:34:27.531Z,38.47
2022-11-23T21:36:56.716Z,40.35
2022-11-23T21:39:24.528Z,41.42
2022-11-23T21:41:53.721Z,40.10
2022-11-23T21:44:22.306Z,40.83
2022-11-23T21:46:49.741Z,40.35
2022-11-23T21:49:17.231Z,40.80
2022-11-23T21:51:46.009Z,38.60
2022-11-23T21:54:15.982Z,37.95
2022-11-23T21:56:45.008Z,38.45
2022-11-23T21:59:12.683Z,38.95
2022-11-23T22:01:41.100Z,40.00
2022-11-23T22:04:11.507Z,38.20
2022-11-23T22:06:40.001Z,40.08
2022-11-23T22:09:09.797Z,38.03
2022-11-23T22:11:41.314Z,38.42
2022-11-23T22:14:14.026Z,37.63
2022-11-23T22:16:42.791Z,37.75
2022-11-23T22:19:12.485Z,34.63
2022-11-23T22:21:41.148Z,32.97
2022-11-23T22:24:12.913Z,36.83
2022-11-23T22:26:40.520Z,37.03
2022-11-23T22:29:08.007Z,38.13
2022-11-23T22:31:36.352Z,39.45
2022-11-23T22:34:10.648Z,40.65
2022-11-23T22:36:38.131Z,38.53
2022-11-23T22:39:07.100Z,38.30
2022-11-23T22:41:37.624Z,43.92
2022-11-23T22:44:07.856Z,40.95
2022-11-23T22:46:35.808Z,38.67
2022-11-23T22:49:03.389Z,39.85
2022-11-23T22:51:30.911Z,39.55
2022-11-23T22:54:00.133Z,39.60
2022-11-23T22:56:29.164Z,39.43
2022-11-23T22:58:57.032Z,41.38
2022-11-23T23:01:26.976Z,40.75
2022-11-23T23:03:56.123Z,42.42
2022-11-23T23:06:26.079Z,40.43
2022-11-23T23:08:58.507Z,40.20
2022-11-23T23:11:28.257Z,40.28
2022-11-23T23:13:56.195Z,40.80
2022-11-23T23:16:24.232Z,42.05
2022-11-23T23:18:51.881Z,44.30
2022-11-23T23:21:21.428Z,41.08
2022-11-23T23:23:54.032Z,42.60
2022-11-23T23:26:23.909Z,43.70
2022-11-23T23:28:59.323Z,41.72
2022-11-23T23:31:27.921Z,40.53
2022-11-23T23:33:55.306Z,40.35
2022-11-23T23:36:24.112Z,40.17
2022-11-23T23:38:51.988Z,42.38
2022-11-23T23:41:19.687Z,39.63
2022-11-23T23:43:48.480Z,41.75
2022-11-23T23:46:16.195Z,43.10
2022-11-23T23:48:44.201Z,41.22
2022-11-23T23:51:15.783Z,40.22
2022-11-23T23:53:44.422Z,39.92
2022-11-23T23:56:17.066Z,38.75
2022-11-23T23:58:45.172Z,37.53
